Time,TemperatureF,DewpointF,PressureIn,WindDirection,WindDirectionDegrees,WindSpeedMPH,WindSpeedGustMPH,Humidity,HourlyPrecipIn,Conditions,Clouds,dailyrainin,SoftwareType,DateUTC
2013-06-01 00:01:00,66.4,66.4,29.67,South,187,2.0,3.5,100,0.00,CLR,,0.00,WeatherDisplay:10.37,2013-06-01 05:01:00,
2013-06-01 00:06:00,66.4,66.4,29.68,West,260,2.7,5.7,100,0.00,BKN,,0.00,WeatherDisplay:10.37,2013-06-01 05:06:00,
2013-06-01 00:11:00,66.3,66.3,29.68,WSW,237,4.8,5.8,100,0.00,BKN,,0.00,WeatherDisplay:10.37,2013-06-01 05:11:00,
2013-06-01 00:16:00,66.4,66.4,29.67,SSE,148,0.0,2.3,100,0.00,BKN,,0.00,WeatherDisplay:10.37,2013-06-01 05:16:00,
2013-06-01 00:21:00,66.4,66.4,29.68,SSW,195,1.8,5.5,100,0.00,BKN,,0.00,WeatherDisplay:10.37,2013-06-01 05:21:00,
2013-06-01 00:26:00,66.4,66.4,29.67,WSW,254,4.6,5.8,100,0.00,BKN,,0.00,WeatherDisplay:10.37,2013-06-01 05:26:00,
2013-06-01 00:31:00,66.2,66.2,29.67,West,268,3.9,6.9,100,0.00,BKN,,0.00,WeatherDisplay:10.37,2013-06-01 05:31:00,
2013-06-01 00:36:00,66.3,66.3,29.67,West,276,2.2,3.5,100,0.00,BKN,,0.00,WeatherDisplay:10.37,2013-06-01 05:36:00,
2013-06-01 00:41:00,66.4,66.4,29.67,SW,225,0.0,0.0,100,0.00,BKN,,0.00,WeatherDisplay:10.37,2013-06-01 05:41:00,
2013-06-01 00:46:00,66.3,66.3,29.67,West,281,2.9,3.5,100,0.00,BKN,,0.00,WeatherDisplay:10.37,2013-06-01 05:46:00,
2013-06-01 00:51:00,66.3,66.3,29.67,SSW,198,0.6,1.2,100,0.00,BKN,,0.00,WeatherDisplay:10.37,2013-06-01 05:51:00,
2013-06-01 00:56:00,66.3,66.3,29.67,WNW,300,0.0,0.0,100,0.00,BKN,,0.00,WeatherDisplay:10.37,2013-06-01 05:56:00,
2013-06-01 01:01:00,66.3,66.3,29.67,WNW,283,2.9,4.6,100,0.00,OVC,,0.00,WeatherDisplay:10.37,2013-06-01 06:01:00,
2013-06-01 01:06:00,66.5,66.5,29.67,West,270,0.0,1.2,100,0.00,OVC,,0.00,WeatherDisplay:10.37,2013-06-01 06:06:00,
2013-06-01 01:11:00,66.5,66.5,29.67,SW,235,2.1,5.8,100,0.00,OVC,,0.00,WeatherDisplay:10.37,2013-06-01 06:11:00,
2013-06-01 01:16:00,66.7,66.7,29.68,SSW,212,3.7,6.9,100,0.00,OVC,,0.00,WeatherDisplay:10.37,2013-06-01 06:16:00,
2013-06-01 01:21:00,66.6,66.6,29.67,SSW,192,1.1,3.5,100,0.00,OVC,,0.00,WeatherDisplay:10.37,2013-06-01 06:21:00,
2013-06-01 01:26:00,66.4,66.4,29.67,SW,216,0.0,0.0,100,0.00,OVC,,0.00,WeatherDisplay:10.37,2013-06-01 06:26:00,
2013-06-01 01:31:00,66.3,66.3,29.67,SW,216,0.0,0.0,100,0.00,OVC,,0.00,WeatherDisplay:10.37,2013-06-01 06:31:00,
2013-06-01 01:36:00,66.2,66.2,29.67,SW,216,0.0,0.0,100,0.00,OVC,,0.00,WeatherDisplay:10.37,2013-06-01 06:36:00,
2013-06-01 01:41:00,66.0,66.0,29.67,SW,216,0.0,0.0,100,0.00,OVC,,0.00,WeatherDisplay:10.37,2013-06-01 06:41:00,
2013-06-01 01:46:00,65.9,65.9,29.67,SW,216,0.0,0.0,100,0.00,OVC,,0.00,WeatherDisplay:10.37,2013-06-01 06:46:00,
2013-06-01 01:51:00,65.5,65.5,29.67,SW,229,0.7,2.9,100,0.00,OVC,,0.00,WeatherDisplay:10.37,2013-06-01 06:51:00,
2013-06-01 01:56:00,65.4,65.4,29.67,South,184,1.3,1.3,100,0.00,OVC,,0.00,WeatherDisplay:10.37,2013-06-01 06:56:00,
2013-06-01 02:01:00,65.3,65.3,29.67,SE,126,1.1,3.5,100,0.00,SCT,,0.00,WeatherDisplay:10.37,2013-06-01 07:01:00,
2013-06-01 02:06:00,65.3,65.3,29.67,SE,141,0.0,0.0,100,0.00,SCT,,0.00,WeatherDisplay:10.37,2013-06-01 07:06:00,
2013-06-01 02:11:00,65.1,65.1,29.67,South,178,0.1,2.3,100,0.00,SCT,,0.00,WeatherDisplay:10.37,2013-06-01 07:11:00,
2013-06-01 02:16:00,65.0,65.0,29.67,SSW,209,1.4,2.5,100,0.00,SCT,,0.00,WeatherDisplay:10.37,2013-06-01 07:16:00,
2013-06-01 02:21:00,65.0,65.0,29.67,South,174,1.1,3.5,100,0.00,SCT,,0.00,WeatherDisplay:10.37,2013-06-01 07:21:00,
2013-06-01 02:26:00,65.0,65.0,29.66,SSW,202,2.2,4.6,100,0.00,SCT,,0.00,WeatherDisplay:10.37,2013-06-01 07:26:00,
2013-06-01 02:31:00,65.0,65.0,29.65,SSW,199,0.0,0.0,100,0.00,SCT,,0.00,WeatherDisplay:10.37,2013-06-01 07:31:00,
2013-06-01 02:36:00,64.8,64.8,29.65,SW,226,1.1,1.3,100,0.00,SCT,,0.00,WeatherDisplay:10.37,2013-06-01 07:36:00,
2013-06-01 02:41:00,64.9,64.9,29.65,SSW,206,2.3,3.2,100,0.00,SCT,,0.00,WeatherDisplay:10.37,2013-06-01 07:41:00,
2013-06-01 02:46:00,64.9,64.9,29.65,West,280,1.6,2.3,100,0.00,SCT,,0.00,WeatherDisplay:10.37,2013-06-01 07:46:00,
2013-06-01 02:51:00,64.7,64.7,29.65,SW,226,0.0,0.0,100,0.00,SCT,,0.00,WeatherDisplay:10.37,2013-06-01 07:51:00,
2013-06-01 02:56:00,64.8,64.8,29.65,South,188,0.0,1.2,100,0.00,SCT,,0.00,WeatherDisplay:10.37,2013-06-01 07:56:00,
2013-06-01 03:01:00,64.8,64.8,29.65,South,188,0.0,0.0,100,0.00,FEW,,0.00,WeatherDisplay:10.37,2013-06-01 08:01:00,
2013-06-01 03:06:00,64.9,64.9,29.65,South,188,0.0,0.0,100,0.00,FEW,,0.00,WeatherDisplay:10.37,2013-06-01 08:06:00,
2013-06-01 03:11:00,64.9,64.9,29.65,SSE,160,1.2,2.3,100,0.00,FEW,,0.00,WeatherDisplay:10.37,2013-06-01 08:11:00,
2013-06-01 03:16:00,65.1,65.1,29.65,SSE,165,0.9,5.8,100,0.00,FEW,,0.00,WeatherDisplay:10.37,2013-06-01 08:16:00,
2013-06-01 03:21:00,65.0,65.0,29.65,South,191,0.0,0.0,100,0.00,FEW,,0.00,WeatherDisplay:10.37,2013-06-01 08:21:00,
2013-06-01 03:26:00,65.0,65.0,29.65,SSW,202,0.7,3.5,100,0.00,FEW,,0.00,WeatherDisplay:10.37,2013-06-01 08:26:00,
2013-06-01 03:31:00,64.9,64.9,29.65,WSW,237,0.0,0.0,100,0.00,FEW,,0.00,WeatherDisplay:10.37,2013-06-01 08:31:00,
2013-06-01 03:36:00,65.0,65.0,29.66,SSE,148,0.6,2.2,100,0.00,FEW,,0.00,WeatherDisplay:10.37,2013-06-01 08:36:00,
2013-06-01 03:41:00,65.0,65.0,29.66,SSW,202,0.0,0.0,100,0.00,FEW,,0.00,WeatherDisplay:10.37,2013-06-01 08:41:00,
2013-06-01 03:46:00,65.1,65.1,29.66,NW,326,2.8,5.8,100,0.00,FEW,,0.00,WeatherDisplay:10.37,2013-06-01 08:46:00,
2013-06-01 03:51:00,65.0,65.0,29.66,West,271,0.0,0.0,100,0.00,FEW,,0.00,WeatherDisplay:10.37,2013-06-01 08:51:00,
2013-06-01 03:56:00,64.9,64.9,29.66,West,271,0.0,0.0,100,0.00,FEW,,0.00,WeatherDisplay:10.37,2013-06-01 08:56:00,
2013-06-01 04:01:00,64.7,64.7,29.66,West,271,0.0,0.0,100,0.00,BKN,,0.00,WeatherDisplay:10.37,2013-06-01 09:01:00,
2013-06-01 04:06:00,64.5,64.5,29.66,South,180,1.9,6.9,100,0.00,BKN,,0.00,WeatherDisplay:10.37,2013-06-01 09:06:00,
2013-06-01 04:11:00,64.6,64.6,29.65,South,177,2.4,4.6,100,0.00,BKN,,0.00,WeatherDisplay:10.37,2013-06-01 09:11:00,
2013-06-01 04:16:00,64.7,64.7,29.65,South,178,0.2,2.3,100,0.00,BKN,,0.00,WeatherDisplay:10.37,2013-06-01 09:16:00,
2013-06-01 04:21:00,64.6,64.6,29.65,SSW,212,0.0,1.1,100,0.00,BKN,,0.00,WeatherDisplay:10.37,2013-06-01 09:21:00,
2013-06-01 04:26:00,64.6,64.6,29.65,SW,230,0.9,3.5,100,0.00,BKN,,0.00,WeatherDisplay:10.37,2013-06-01 09:26:00,
2013-06-01 04:31:00,64.6,64.6,29.65,WSW,243,1.5,3.5,100,0.00,BKN,,0.00,WeatherDisplay:10.37,2013-06-01 09:31:00,
2013-06-01 04:36:00,64.7,64.7,29.65,SW,218,0.3,2.3,100,0.00,BKN,,0.00,WeatherDisplay:10.37,2013-06-01 09:36:00,
2013-06-01 04:41:00,64.7,64.7,29.65,WSW,250,0.6,0.7,100,0.00,BKN,,0.00,WeatherDisplay:10.37,2013-06-01 09:41:00,
2013-06-01 04:46:00,64.6,64.6,29.65,WSW,250,0.0,0.0,100,0.00,BKN,,0.00,WeatherDisplay:10.37,2013-06-01 09:46:00,
2013-06-01 04:51:00,64.6,64.6,29.65,WSW,250,0.0,0.0,100,0.00,BKN,,0.00,WeatherDisplay:10.37,2013-06-01 09:51:00,
2013-06-01 04:56:00,64.4,64.4,29.65,South,191,0.0,0.0,100,0.00,BKN,,0.00,WeatherDisplay:10.37,2013-06-01 09:56:00,
2013-06-01 05:01:00,64.3,64.3,29.65,South,191,0.0,0.0,100,0.00,SCT,,0.00,WeatherDisplay:10.37,2013-06-01 10:01:00,
2013-06-01 05:06:00,64.1,64.1,29.65,South,191,0.0,0.0,100,0.00,SCT,,0.00,WeatherDisplay:10.37,2013-06-01 10:06:00,
2013-06-01 05:11:00,64.0,64.0,29.65,South,191,0.0,0.0,100,0.00,SCT,,0.00,WeatherDisplay:10.37,2013-06-01 10:11:00,
2013-06-01 05:16:00,63.9,63.9,29.65,South,191,0.0,0.0,100,0.00,SCT,,0.00,WeatherDisplay:10.37,2013-06-01 10:16:00,
2013-06-01 05:21:00,63.8,63.8,29.66,South,191,0.0,0.0,100,0.00,SCT,,0.00,WeatherDisplay:10.37,2013-06-01 10:21:00,
2013-06-01 05:26:00,63.7,63.7,29.66,South,191,0.0,0.0,100,0.00,SCT,,0.00,WeatherDisplay:10.37,2013-06-01 10:26:00,
2013-06-01 05:31:00,63.8,63.8,29.66,South,191,0.0,0.0,100,0.00,SCT,,0.00,WeatherDisplay:10.37,2013-06-01 10:31:00,
2013-06-01 05:36:00,63.7,63.7,29.66,South,191,0.0,0.0,100,0.00,SCT,,0.00,WeatherDisplay:10.37,2013-06-01 10:36:00,
2013-06-01 05:41:00,63.6,63.6,29.66,South,191,0.0,0.0,100,0.00,SCT,,0.00,WeatherDisplay:10.37,2013-06-01 10:41:00,
2013-06-01 05:46:00,63.8,63.8,29.67,South,170,0.5,3.5,100,0.00,SCT,,0.00,WeatherDisplay:10.37,2013-06-01 10:46:00,
2013-06-01 05:51:00,64.1,64.1,29.67,SE,134,1.1,2.3,100,0.00,SCT,,0.00,WeatherDisplay:10.37,2013-06-01 10:51:00,
2013-06-01 05:56:00,64.3,64.3,29.67,SSE,157,0.0,0.0,100,0.00,SCT,,0.00,WeatherDisplay:10.37,2013-06-01 10:56:00,
2013-06-01 06:01:00,64.4,64.4,29.66,SSE,157,0.0,0.0,100,0.00,BKN,,0.00,WeatherDisplay:10.37,2013-06-01 11:01:00,
2013-06-01 06:06:00,64.4,64.4,29.66,SSE,167,0.2,1.1,100,0.00,BKN,,0.00,WeatherDisplay:10.37,2013-06-01 11:06:00,
2013-06-01 06:11:00,64.4,64.4,29.66,South,185,1.5,3.5,100,0.00,BKN,,0.00,WeatherDisplay:10.37,2013-06-01 11:11:00,
2013-06-01 06:16:00,64.4,64.4,29.66,South,181,0.5,2.3,100,0.00,BKN,,0.00,WeatherDisplay:10.37,2013-06-01 11:16:00,
2013-06-01 06:21:00,64.3,64.3,29.66,SSW,192,0.0,0.0,100,0.00,BKN,,0.00,WeatherDisplay:10.37,2013-06-01 11:21:00,
2013-06-01 06:26:00,64.3,64.3,29.65,South,184,1.6,6.5,100,0.00,BKN,,0.00,WeatherDisplay:10.37,2013-06-01 11:26:00,
2013-06-01 06:31:00,64.1,64.1,29.66,ESE,103,0.7,2.3,100,0.00,BKN,,0.00,WeatherDisplay:10.37,2013-06-01 11:31:00,
2013-06-01 06:36:00,64.2,64.2,29.66,South,191,0.3,2.3,100,0.00,BKN,,0.00,WeatherDisplay:10.37,2013-06-01 11:36:00,
2013-06-01 06:41:00,64.0,64.0,29.66,ESE,120,0.1,1.2,100,0.00,BKN,,0.00,WeatherDisplay:10.37,2013-06-01 11:41:00,
2013-06-01 06:46:00,64.0,64.0,29.65,SE,130,0.3,3.5,100,0.00,BKN,,0.00,WeatherDisplay:10.37,2013-06-01 11:46:00,
2013-06-01 06:51:00,64.1,64.1,29.66,WSW,239,1.4,6.2,100,0.00,BKN,,0.00,WeatherDisplay:10.37,2013-06-01 11:51:00,
2013-06-01 06:56:00,64.1,64.1,29.65,SSW,212,1.3,3.5,100,0.00,BKN,,0.00,WeatherDisplay:10.37,2013-06-01 11:56:00,
2013-06-01 07:01:00,64.2,64.2,29.65,WSW,239,0.0,1.2,100,0.00,OVC,,0.00,WeatherDisplay:10.37,2013-06-01 12:01:00,
2013-06-01 07:06:00,64.4,64.4,29.66,South,187,3.6,6.9,100,0.00,OVC,,0.00,WeatherDisplay:10.37,2013-06-01 12:06:00,
2013-06-01 07:11:00,64.2,64.2,29.65,SSE,153,2.4,6.9,100,0.00,OVC,,0.00,WeatherDisplay:10.37,2013-06-01 12:11:00,
2013-06-01 07:16:00,64.3,64.3,29.65,SSE,168,2.6,5.8,100,0.00,OVC,,0.00,WeatherDisplay:10.37,2013-06-01 12:16:00,
2013-06-01 07:21:00,64.4,64.4,29.66,SW,216,0.4,5.8,100,0.00,OVC,,0.00,WeatherDisplay:10.37,2013-06-01 12:21:00,
2013-06-01 07:26:00,64.7,64.7,29.66,SE,146,2.5,4.6,100,0.00,OVC,,0.00,WeatherDisplay:10.37,2013-06-01 12:26:00,
2013-06-01 07:31:00,64.6,64.6,29.66,WSW,243,2.8,6.9,100,0.00,OVC,,0.00,WeatherDisplay:10.37,2013-06-01 12:31:00,
2013-06-01 07:36:00,64.7,64.7,29.66,WNW,298,3.5,4.6,100,0.00,OVC,,0.00,WeatherDisplay:10.37,2013-06-01 12:36:00,
2013-06-01 07:41:00,64.8,64.8,29.66,South,187,4.4,6.9,100,0.00,OVC,,0.00,WeatherDisplay:10.37,2013-06-01 12:41:00,
2013-06-01 07:46:00,65.2,65.2,29.67,SW,235,4.4,6.9,100,0.00,OVC,,0.00,WeatherDisplay:10.37,2013-06-01 12:46:00,
2013-06-01 07:51:00,65.3,65.3,29.67,South,172,2.9,6.9,100,0.00,OVC,,0.00,WeatherDisplay:10.37,2013-06-01 12:51:00,
2013-06-01 07:56:00,65.7,65.7,29.67,SSW,192,4.1,6.9,100,0.00,OVC,,0.00,WeatherDisplay:10.37,2013-06-01 12:56:00,
2013-06-01 08:01:00,66.1,66.1,29.67,SSW,198,3.8,5.8,100,0.00,BKN,,0.00,WeatherDisplay:10.37,2013-06-01 13:01:00,
2013-06-01 08:06:00,66.7,66.7,29.67,WSW,243,4.7,9.2,100,0.00,BKN,,0.00,WeatherDisplay:10.37,2013-06-01 13:06:00,
2013-06-01 08:11:00,67.3,67.3,29.67,SW,219,2.4,6.3,100,0.00,BKN,,0.00,WeatherDisplay:10.37,2013-06-01 13:11:00,
2013-06-01 08:16:00,67.3,67.3,29.67,WSW,256,5.5,9.2,100,0.00,BKN,,0.00,WeatherDisplay:10.37,2013-06-01 13:16:00,
2013-06-01 08:21:00,67.9,67.9,29.67,SW,222,6.2,10.4,100,0.00,BKN,,0.00,WeatherDisplay:10.37,2013-06-01 13:21:00,
2013-06-01 08:26:00,68.4,68.4,29.67,SSW,194,5.8,10.4,100,0.00,BKN,,0.00,WeatherDisplay:10.37,2013-06-01 13:26:00,
2013-06-01 08:31:00,69.0,69.0,29.66,SW,222,2.5,6.9,100,0.00,BKN,,0.00,WeatherDisplay:10.37,2013-06-01 13:31:00,
2013-06-01 08:36:00,69.0,69.0,29.67,SSW,199,6.1,11.5,100,0.00,BKN,,0.00,WeatherDisplay:10.37,2013-06-01 13:36:00,
2013-06-01 08:41:00,68.8,68.8,29.67,SW,216,6.9,9.2,100,0.00,BKN,,0.00,WeatherDisplay:10.37,2013-06-01 13:41:00,
2013-06-01 08:46:00,68.7,68.7,29.67,WSW,244,5.8,10.4,100,0.00,BKN,,0.00,WeatherDisplay:10.37,2013-06-01 13:46:00,
2013-06-01 08:51:00,68.5,68.5,29.67,SE,129,5.8,9.2,100,0.00,BKN,,0.00,WeatherDisplay:10.37,2013-06-01 13:51:00,
2013-06-01 08:56:00,68.6,68.6,29.67,SSW,211,3.5,5.8,100,0.00,BKN,,0.00,WeatherDisplay:10.37,2013-06-01 13:56:00,
2013-06-01 09:01:00,68.8,68.8,29.67,West,261,4.4,15.0,100,0.00,BKN,,0.00,WeatherDisplay:10.37,2013-06-01 14:01:00,
2013-06-01 09:06:00,68.9,68.9,29.67,WSW,239,2.8,4.2,100,0.00,BKN,,0.00,WeatherDisplay:10.37,2013-06-01 14:06:00,
2013-06-01 09:11:00,69.4,69.4,29.67,SSW,201,2.3,4.6,100,0.00,BKN,,0.00,WeatherDisplay:10.37,2013-06-01 14:11:00,
2013-06-01 09:16:00,69.7,69.1,29.67,West,268,5.3,10.4,98,0.00,BKN,,0.00,WeatherDisplay:10.37,2013-06-01 14:16:00,
2013-06-01 09:21:00,70.5,69.3,29.67,South,185,5.4,8.1,96,0.00,BKN,,0.00,WeatherDisplay:10.37,2013-06-01 14:21:00,
2013-06-01 09:26:00,71.0,69.2,29.67,South,188,5.2,8.1,94,0.00,BKN,,0.00,WeatherDisplay:10.37,2013-06-01 14:26:00,
2013-06-01 09:31:00,70.6,67.8,29.67,SSW,211,8.6,12.7,91,0.00,BKN,,0.00,WeatherDisplay:10.37,2013-06-01 14:31:00,
2013-06-01 09:36:00,70.5,66.4,29.67,SSW,194,7.1,13.8,87,0.00,BKN,,0.00,WeatherDisplay:10.37,2013-06-01 14:36:00,
2013-06-01 09:41:00,70.8,67.1,29.67,South,177,6.6,10.8,88,0.00,BKN,,0.00,WeatherDisplay:10.37,2013-06-01 14:41:00,
2013-06-01 09:46:00,71.0,67.3,29.66,South,181,4.0,8.1,88,0.00,BKN,,0.00,WeatherDisplay:10.37,2013-06-01 14:46:00,
2013-06-01 09:51:00,71.0,66.6,29.66,SSW,198,6.9,13.8,86,0.00,BKN,,0.00,WeatherDisplay:10.37,2013-06-01 14:51:00,
2013-06-01 09:56:00,71.3,67.2,29.66,SW,235,6.1,10.4,87,0.00,BKN,,0.00,WeatherDisplay:10.37,2013-06-01 14:56:00,
2013-06-01 10:01:00,71.8,67.7,29.66,ENE,58,2.5,9.2,87,0.00,BKN,,0.00,WeatherDisplay:10.37,2013-06-01 15:01:00,
2013-06-01 10:06:00,71.5,66.4,29.67,SSW,192,6.4,11.5,84,0.00,BKN,,0.00,WeatherDisplay:10.37,2013-06-01 15:06:00,
2013-06-01 10:11:00,71.6,67.9,29.67,ESE,119,1.9,3.5,88,0.00,BKN,,0.00,WeatherDisplay:10.37,2013-06-01 15:11:00,
2013-06-01 10:16:00,71.6,67.2,29.67,WSW,249,4.9,8.1,86,0.00,BKN,,0.00,WeatherDisplay:10.37,2013-06-01 15:16:00,
2013-06-01 10:21:00,71.3,66.9,29.67,South,172,7.4,10.4,86,0.00,BKN,,0.00,WeatherDisplay:10.37,2013-06-01 15:21:00,
2013-06-01 10:26:00,71.1,67.0,29.67,South,189,6.7,9.3,87,0.00,BKN,,0.00,WeatherDisplay:10.37,2013-06-01 15:26:00,
2013-06-01 10:31:00,71.3,66.9,29.67,SW,219,2.9,8.1,86,0.00,BKN,,0.00,WeatherDisplay:10.37,2013-06-01 15:31:00,
2013-06-01 10:36:00,71.5,66.4,29.67,NW,305,6.0,10.4,84,0.00,BKN,,0.00,WeatherDisplay:10.37,2013-06-01 15:36:00,
2013-06-01 10:41:00,71.7,66.6,29.67,West,259,3.8,6.0,84,0.00,BKN,,0.00,WeatherDisplay:10.37,2013-06-01 15:41:00,
2013-06-01 10:46:00,71.8,66.4,29.67,SSE,156,5.6,9.2,83,0.00,BKN,,0.00,WeatherDisplay:10.37,2013-06-01 15:46:00,
2013-06-01 10:51:00,71.8,64.9,29.67,SSW,201,6.2,13.8,79,0.00,BKN,,0.00,WeatherDisplay:10.37,2013-06-01 15:51:00,
2013-06-01 10:56:00,72.2,65.7,29.67,SSW,202,4.5,8.1,80,0.00,BKN,,0.00,WeatherDisplay:10.37,2013-06-01 15:56:00,
2013-06-01 11:01:00,72.1,64.9,29.67,SW,229,4.9,10.4,78,0.00,BKN,,0.00,WeatherDisplay:10.37,2013-06-01 16:01:00,
2013-06-01 11:06:00,72.0,65.8,29.67,SSW,208,6.0,9.2,81,0.00,BKN,,0.00,WeatherDisplay:10.37,2013-06-01 16:06:00,
2013-06-01 11:11:00,72.0,66.2,29.67,SW,228,3.7,8.1,82,0.00,BKN,,0.00,WeatherDisplay:10.37,2013-06-01 16:11:00,
2013-06-01 11:16:00,72.1,65.6,29.67,SW,230,6.0,9.2,80,0.00,BKN,,0.00,WeatherDisplay:10.37,2013-06-01 16:16:00,
2013-06-01 11:21:00,72.3,65.8,29.67,SE,144,2.2,8.1,80,0.00,BKN,,0.00,WeatherDisplay:10.37,2013-06-01 16:21:00,
2013-06-01 11:26:00,72.6,67.1,29.67,South,187,3.8,6.9,83,0.00,BKN,,0.00,WeatherDisplay:10.37,2013-06-01 16:26:00,
2013-06-01 11:31:00,72.3,67.9,29.67,SSW,202,5.2,9.2,86,0.00,BKN,,0.00,WeatherDisplay:10.37,2013-06-01 16:31:00,
2013-06-01 11:36:00,72.4,68.0,29.67,SSW,205,3.6,8.1,86,0.00,BKN,,0.00,WeatherDisplay:10.37,2013-06-01 16:36:00,
2013-06-01 11:41:00,72.6,68.5,29.67,South,185,5.8,9.2,87,0.00,BKN,,0.00,WeatherDisplay:10.37,2013-06-01 16:41:00,
2013-06-01 11:46:00,72.2,67.4,29.67,SE,132,5.8,9.7,85,0.00,BKN,,0.00,WeatherDisplay:10.37,2013-06-01 16:46:00,
2013-06-01 11:51:00,71.7,68.0,29.66,SSW,194,5.1,7.3,88,0.00,BKN,,0.00,WeatherDisplay:10.37,2013-06-01 16:51:00,
2013-06-01 11:56:00,71.7,67.6,29.67,SW,215,6.3,11.7,87,0.00,BKN,,0.00,WeatherDisplay:10.37,2013-06-01 16:56:00,
2013-06-01 12:01:00,71.7,68.0,29.67,SSW,198,6.1,8.1,88,0.00,BKN,,0.00,WeatherDisplay:10.37,2013-06-01 17:01:00,
2013-06-01 12:06:00,72.2,67.4,29.66,SSE,161,8.2,17.3,85,0.00,BKN,,0.00,WeatherDisplay:10.37,2013-06-01 17:06:00,
2013-06-01 12:11:00,72.5,67.4,29.66,South,177,6.9,10.3,84,0.00,BKN,,0.00,WeatherDisplay:10.37,2013-06-01 17:11:00,
2013-06-01 12:16:00,72.7,67.2,29.66,SSW,198,6.9,11.5,83,0.00,BKN,,0.00,WeatherDisplay:10.37,2013-06-01 17:16:00,
2013-06-01 12:21:00,72.7,66.9,29.66,South,187,7.7,11.5,82,0.00,BKN,,0.00,WeatherDisplay:10.37,2013-06-01 17:21:00,
2013-06-01 12:26:00,72.9,66.4,29.66,SSW,192,9.3,12.7,80,0.00,BKN,,0.00,WeatherDisplay:10.37,2013-06-01 17:26:00,
2013-06-01 12:31:00,72.7,65.8,29.66,SSW,212,5.5,9.2,79,0.00,BKN,,0.00,WeatherDisplay:10.37,2013-06-01 17:31:00,
2013-06-01 12:36:00,72.8,66.6,29.66,NE,34,3.9,6.9,81,0.00,BKN,,0.00,WeatherDisplay:10.37,2013-06-01 17:36:00,
2013-06-01 12:41:00,72.7,66.2,29.65,South,185,5.7,13.8,80,0.00,BKN,,0.00,WeatherDisplay:10.37,2013-06-01 17:41:00,
2013-06-01 12:46:00,72.7,66.9,29.66,SE,139,5.2,9.2,82,0.00,BKN,,0.00,WeatherDisplay:10.37,2013-06-01 17:46:00,
2013-06-01 12:51:00,72.9,66.4,29.66,SSW,194,5.1,10.1,80,0.00,BKN,,0.00,WeatherDisplay:10.37,2013-06-01 17:51:00,
2013-06-01 12:56:00,73.0,65.4,29.66,South,185,7.0,11.5,77,0.00,BKN,,0.00,WeatherDisplay:10.37,2013-06-01 17:56:00,
2013-06-01 13:01:00,72.7,65.8,29.66,SSE,164,6.5,11.5,79,0.00,BKN,,0.00,WeatherDisplay:10.37,2013-06-01 18:01:00,
2013-06-01 13:06:00,72.9,64.9,29.66,West,274,6.2,11.5,76,0.00,BKN,,0.00,WeatherDisplay:10.37,2013-06-01 18:06:00,
2013-06-01 13:11:00,72.7,65.8,29.66,SE,133,6.1,8.1,79,0.00,BKN,,0.00,WeatherDisplay:10.37,2013-06-01 18:11:00,
2013-06-01 13:16:00,72.5,67.4,29.67,SSE,158,3.3,5.8,84,0.00,BKN,,0.00,WeatherDisplay:10.37,2013-06-01 18:16:00,
2013-06-01 13:21:00,71.7,65.9,29.66,SSW,211,6.3,11.4,82,0.00,BKN,,0.00,WeatherDisplay:10.37,2013-06-01 18:21:00,
2013-06-01 13:26:00,71.6,68.2,29.66,SW,223,5.8,9.2,89,0.00,BKN,,0.00,WeatherDisplay:10.37,2013-06-01 18:26:00,
2013-06-01 13:31:00,71.8,69.3,29.66,SSW,198,6.9,10.4,92,0.00,BKN,,0.00,WeatherDisplay:10.37,2013-06-01 18:31:00,
2013-06-01 13:36:00,72.0,67.9,29.66,SW,219,6.4,10.4,87,0.00,BKN,,0.00,WeatherDisplay:10.37,2013-06-01 18:36:00,
2013-06-01 13:41:00,72.3,67.5,29.66,SSW,192,6.7,10.4,85,0.00,BKN,,0.00,WeatherDisplay:10.37,2013-06-01 18:41:00,
2013-06-01 13:46:00,72.3,66.8,29.66,NW,311,6.0,11.5,83,0.00,BKN,,0.00,WeatherDisplay:10.37,2013-06-01 18:46:00,
2013-06-01 13:51:00,73.1,67.6,29.66,West,271,4.4,8.1,83,0.00,BKN,,0.00,WeatherDisplay:10.37,2013-06-01 18:51:00,
2013-06-01 13:56:00,74.2,66.9,29.66,WNW,298,5.8,10.4,78,0.00,BKN,,0.00,WeatherDisplay:10.37,2013-06-01 18:56:00,
2013-06-01 14:01:00,74.9,66.4,29.65,SSW,194,4.6,8.1,75,0.00,BKN,,0.00,WeatherDisplay:10.37,2013-06-01 19:01:00,
2013-06-01 14:06:00,75.0,64.5,29.65,SSW,204,6.7,16.1,70,0.00,BKN,,0.00,WeatherDisplay:10.37,2013-06-01 19:06:00,
2013-06-01 14:11:00,75.1,63.8,29.65,WSW,253,6.4,10.4,68,0.00,BKN,,0.00,WeatherDisplay:10.37,2013-06-01 19:11:00,
2013-06-01 14:16:00,75.4,62.4,29.65,SW,235,7.7,12.7,64,0.00,BKN,,0.00,WeatherDisplay:10.37,2013-06-01 19:16:00,
2013-06-01 14:21:00,75.3,61.8,29.65,SSW,199,10.7,20.7,63,0.00,BKN,,0.00,WeatherDisplay:10.37,2013-06-01 19:21:00,
2013-06-01 14:26:00,75.9,62.8,29.65,SSE,158,7.4,11.5,64,0.00,BKN,,0.00,WeatherDisplay:10.37,2013-06-01 19:26:00,
2013-06-01 14:31:00,75.9,61.9,29.65,South,174,6.8,13.8,62,0.00,BKN,,0.00,WeatherDisplay:10.37,2013-06-01 19:31:00,
2013-06-01 14:36:00,75.8,60.4,29.65,WSW,237,8.0,16.1,59,0.00,BKN,,0.00,WeatherDisplay:10.37,2013-06-01 19:36:00,
2013-06-01 14:41:00,76.6,61.7,29.64,South,184,6.4,10.4,60,0.00,BKN,,0.00,WeatherDisplay:10.37,2013-06-01 19:41:00,
2013-06-01 14:46:00,76.7,58.8,29.64,SW,215,11.6,18.4,54,0.00,BKN,,0.00,WeatherDisplay:10.37,2013-06-01 19:46:00,
2013-06-01 14:51:00,76.6,60.2,29.64,SSW,202,5.2,12.9,57,0.00,BKN,,0.00,WeatherDisplay:10.37,2013-06-01 19:51:00,
2013-06-01 14:56:00,76.7,61.3,29.64,SSW,209,3.3,8.1,59,0.00,BKN,,0.00,WeatherDisplay:10.37,2013-06-01 19:56:00,
2013-06-01 15:01:00,76.5,59.6,29.64,SE,144,8.7,11.5,56,0.00,OVC,,0.00,WeatherDisplay:10.37,2013-06-01 20:01:00,
2013-06-01 15:06:00,76.6,58.2,29.64,SSW,201,4.5,9.2,53,0.00,OVC,,0.00,WeatherDisplay:10.37,2013-06-01 20:06:00,
2013-06-01 15:11:00,76.6,60.7,29.64,SSW,192,3.5,8.1,58,0.00,OVC,,0.00,WeatherDisplay:10.37,2013-06-01 20:11:00,
2013-06-01 15:16:00,76.8,59.9,29.64,SSE,150,6.4,9.2,56,0.00,OVC,,0.00,WeatherDisplay:10.37,2013-06-01 20:16:00,
2013-06-01 15:21:00,76.8,59.9,29.64,SSW,205,6.7,12.7,56,0.00,OVC,,0.00,WeatherDisplay:10.37,2013-06-01 20:21:00,
2013-06-01 15:26:00,76.8,59.9,29.64,SSW,204,7.6,12.7,56,0.00,OVC,,0.00,WeatherDisplay:10.37,2013-06-01 20:26:00,
2013-06-01 15:31:00,76.5,59.1,29.64,SSW,211,5.4,11.5,55,0.00,OVC,,0.00,WeatherDisplay:10.37,2013-06-01 20:31:00,
2013-06-01 15:36:00,76.2,58.3,29.64,SSW,209,5.1,13.8,54,0.00,OVC,,0.00,WeatherDisplay:10.37,2013-06-01 20:36:00,
2013-06-01 15:41:00,76.5,59.1,29.64,West,276,5.8,11.5,55,0.00,OVC,,0.00,WeatherDisplay:10.37,2013-06-01 20:41:00,
2013-06-01 15:46:00,76.9,59.5,29.64,SSW,196,4.6,6.9,55,0.00,OVC,,0.00,WeatherDisplay:10.37,2013-06-01 20:46:00,
2013-06-01 15:51:00,76.9,59.0,29.64,WSW,243,4.8,6.9,54,0.00,OVC,,0.00,WeatherDisplay:10.37,2013-06-01 20:51:00,
2013-06-01 15:56:00,76.7,56.7,29.63,SW,219,6.6,10.4,50,0.00,OVC,,0.00,WeatherDisplay:10.37,2013-06-01 20:56:00,
2013-06-01 16:01:00,77.2,56.0,29.63,West,280,4.8,8.1,48,0.00,BKN,,0.00,WeatherDisplay:10.37,2013-06-01 21:01:00,
2013-06-01 16:06:00,77.8,57.1,29.63,West,264,7.2,9.2,49,0.00,BKN,,0.00,WeatherDisplay:10.37,2013-06-01 21:06:00,
2013-06-01 16:11:00,77.3,56.6,29.64,WSW,257,6.4,9.2,49,0.00,BKN,,0.00,WeatherDisplay:10.37,2013-06-01 21:11:00,
2013-06-01 16:16:00,77.3,57.8,29.63,SW,228,4.2,6.9,51,0.00,BKN,,0.00,WeatherDisplay:10.37,2013-06-01 21:16:00,
2013-06-01 16:21:00,76.9,56.8,29.63,West,261,6.9,13.8,50,0.00,BKN,,0.00,WeatherDisplay:10.37,2013-06-01 21:21:00,
2013-06-01 16:26:00,76.3,56.3,29.64,WNW,290,8.2,12.7,50,0.00,BKN,,0.00,WeatherDisplay:10.37,2013-06-01 21:26:00,
2013-06-01 16:31:00,76.3,55.7,29.64,WSW,239,6.7,11.5,49,0.00,BKN,,0.00,WeatherDisplay:10.37,2013-06-01 21:31:00,
2013-06-01 16:36:00,76.2,55.6,29.64,WNW,302,5.0,8.1,49,0.00,BKN,,0.00,WeatherDisplay:10.37,2013-06-01 21:36:00,
2013-06-01 16:41:00,75.9,54.8,29.64,West,263,5.6,11.5,48,0.00,BKN,,0.00,WeatherDisplay:10.37,2013-06-01 21:41:00,
2013-06-01 16:46:00,75.9,55.4,29.64,WNW,285,4.6,12.0,49,0.00,BKN,,0.00,WeatherDisplay:10.37,2013-06-01 21:46:00,
2013-06-01 16:51:00,75.4,54.3,29.64,WNW,300,6.5,12.7,48,0.00,BKN,,0.00,WeatherDisplay:10.37,2013-06-01 21:51:00,
2013-06-01 16:56:00,74.2,53.8,29.64,NW,316,8.8,13.8,49,0.00,BKN,,0.00,WeatherDisplay:10.37,2013-06-01 21:56:00,
2013-06-01 17:01:00,74.2,53.8,29.64,NW,304,4.4,11.5,49,0.00,SCT,,0.00,WeatherDisplay:10.37,2013-06-01 22:01:00,
2013-06-01 17:06:00,73.8,53.4,29.64,NW,311,7.7,13.8,49,0.00,SCT,,0.00,WeatherDisplay:10.37,2013-06-01 22:06:00,
2013-06-01 17:11:00,73.5,53.7,29.64,NW,318,7.0,11.5,50,0.00,SCT,,0.00,WeatherDisplay:10.37,2013-06-01 22:11:00,
2013-06-01 17:16:00,73.5,54.3,29.64,NW,316,4.7,8.1,51,0.00,SCT,,0.00,WeatherDisplay:10.37,2013-06-01 22:16:00,
2013-06-01 17:21:00,73.3,54.6,29.64,WNW,283,2.2,6.9,52,0.00,SCT,,0.00,WeatherDisplay:10.37,2013-06-01 22:21:00,
2013-06-01 17:26:00,73.2,54.0,29.65,WSW,254,4.8,10.4,51,0.00,SCT,,0.00,WeatherDisplay:10.37,2013-06-01 22:26:00,
2013-06-01 17:31:00,73.0,53.3,29.65,WNW,292,5.3,10.4,50,0.00,SCT,,0.00,WeatherDisplay:10.37,2013-06-01 22:31:00,
2013-06-01 17:36:00,72.7,54.1,29.65,West,260,4.5,9.2,52,0.00,SCT,,0.00,WeatherDisplay:10.37,2013-06-01 22:36:00,
2013-06-01 17:41:00,72.1,54.0,29.65,WNW,294,3.5,8.6,53,0.00,SCT,,0.00,WeatherDisplay:10.37,2013-06-01 22:41:00,
2013-06-01 17:46:00,71.7,54.2,29.65,NW,307,4.4,9.2,54,0.00,SCT,,0.00,WeatherDisplay:10.37,2013-06-01 22:46:00,
2013-06-01 17:51:00,71.7,54.2,29.65,NW,315,5.6,11.5,54,0.00,SCT,,0.00,WeatherDisplay:10.37,2013-06-01 22:51:00,
2013-06-01 17:56:00,71.5,54.0,29.65,NNW,342,3.9,10.4,54,0.00,SCT,,0.00,WeatherDisplay:10.37,2013-06-01 22:56:00,
2013-06-01 18:01:00,71.6,54.6,29.65,NNW,332,3.4,7.0,55,0.00,SCT,,0.00,WeatherDisplay:10.37,2013-06-01 23:01:00,
2013-06-01 18:06:00,71.2,54.7,29.65,West,271,2.6,7.6,56,0.00,SCT,,0.00,WeatherDisplay:10.37,2013-06-01 23:06:00,
2013-06-01 18:11:00,71.0,54.0,29.65,NNW,339,6.5,10.4,55,0.00,SCT,,0.00,WeatherDisplay:10.37,2013-06-01 23:11:00,
2013-06-01 18:16:00,70.9,54.4,29.65,SSW,211,5.3,11.5,56,0.00,SCT,,0.00,WeatherDisplay:10.37,2013-06-01 23:16:00,
2013-06-01 18:21:00,70.7,54.2,29.65,NNW,348,6.9,10.4,56,0.00,SCT,,0.00,WeatherDisplay:10.37,2013-06-01 23:21:00,
2013-06-01 18:26:00,70.9,54.4,29.65,NW,325,3.4,8.1,56,0.00,SCT,,0.00,WeatherDisplay:10.37,2013-06-01 23:26:00,
2013-06-01 18:31:00,71.0,55.0,29.65,SW,236,0.5,4.6,57,0.00,SCT,,0.00,WeatherDisplay:10.37,2013-06-01 23:31:00,
2013-06-01 18:36:00,71.1,55.1,29.65,NW,314,5.5,8.1,57,0.00,SCT,,0.00,WeatherDisplay:10.37,2013-06-01 23:36:00,
2013-06-01 18:41:00,70.6,54.1,29.65,WNW,291,6.3,10.4,56,0.00,SCT,,0.00,WeatherDisplay:10.37,2013-06-01 23:41:00,
2013-06-01 18:46:00,70.3,54.8,29.65,West,270,5.3,10.4,58,0.00,SCT,,0.00,WeatherDisplay:10.37,2013-06-01 23:46:00,
2013-06-01 18:51:00,70.0,55.0,29.65,NW,305,3.7,6.9,59,0.00,SCT,,0.00,WeatherDisplay:10.37,2013-06-01 23:51:00,
2013-06-01 18:56:00,69.9,55.4,29.66,SW,226,3.1,4.6,60,0.00,SCT,,0.00,WeatherDisplay:10.37,2013-06-01 23:56:00,
2013-06-01 19:01:00,69.6,55.6,29.66,WSW,246,3.0,6.3,61,0.00,FEW,,0.00,WeatherDisplay:10.37,2013-06-02 00:01:00,
2013-06-01 19:06:00,69.6,55.6,29.66,West,268,4.3,5.8,61,0.00,FEW,,0.00,WeatherDisplay:10.37,2013-06-02 00:06:00,
2013-06-01 19:11:00,69.4,55.4,29.66,SSW,198,3.7,7.1,61,0.00,FEW,,0.00,WeatherDisplay:10.37,2013-06-02 00:11:00,
2013-06-01 19:16:00,69.4,55.8,29.66,WNW,301,0.8,5.8,62,0.00,FEW,,0.00,WeatherDisplay:10.37,2013-06-02 00:16:00,
2013-06-01 19:21:00,69.1,56.0,29.66,WNW,301,5.0,8.1,63,0.00,FEW,,0.00,WeatherDisplay:10.37,2013-06-02 00:21:00,
2013-06-01 19:26:00,68.8,56.1,29.66,South,170,2.6,9.2,64,0.00,FEW,,0.00,WeatherDisplay:10.37,2013-06-02 00:26:00,
2013-06-01 19:31:00,68.4,55.3,29.66,SSE,163,5.2,8.1,63,0.00,FEW,,0.00,WeatherDisplay:10.37,2013-06-02 00:31:00,
2013-06-01 19:36:00,68.4,55.7,29.66,WNW,295,4.3,8.1,64,0.00,FEW,,0.00,WeatherDisplay:10.37,2013-06-02 00:36:00,
2013-06-01 19:41:00,68.2,55.6,29.66,SSW,194,3.4,8.1,64,0.00,FEW,,0.00,WeatherDisplay:10.37,2013-06-02 00:41:00,
2013-06-01 19:46:00,68.0,56.2,29.67,SSE,157,2.9,9.2,66,0.00,FEW,,0.00,WeatherDisplay:10.37,2013-06-02 00:46:00,
2013-06-01 19:51:00,67.9,56.1,29.67,West,268,3.3,6.9,66,0.00,FEW,,0.00,WeatherDisplay:10.37,2013-06-02 00:51:00,
2013-06-01 19:56:00,67.8,56.4,29.67,NW,314,3.8,8.4,67,0.00,FEW,,0.00,WeatherDisplay:10.37,2013-06-02 00:56:00,
2013-06-01 20:01:00,67.7,56.8,29.67,NW,321,2.3,5.0,68,0.00,SCT,,0.00,WeatherDisplay:10.37,2013-06-02 01:01:00,
2013-06-01 20:06:00,67.5,56.6,29.67,WNW,284,3.1,5.5,68,0.00,SCT,,0.00,WeatherDisplay:10.37,2013-06-02 01:06:00,
2013-06-01 20:11:00,67.3,56.8,29.67,NNW,336,2.0,3.5,69,0.00,SCT,,0.00,WeatherDisplay:10.37,2013-06-02 01:11:00,
2013-06-01 20:16:00,67.2,56.3,29.67,NW,307,5.2,10.4,68,0.00,SCT,,0.00,WeatherDisplay:10.37,2013-06-02 01:16:00,
2013-06-01 20:21:00,67.1,56.2,29.67,NW,324,2.9,9.2,68,0.00,SCT,,0.00,WeatherDisplay:10.37,2013-06-02 01:21:00,
2013-06-01 20:26:00,66.9,56.0,29.67,WNW,298,4.3,8.1,68,0.00,SCT,,0.00,WeatherDisplay:10.37,2013-06-02 01:26:00,
2013-06-01 20:31:00,66.9,56.4,29.67,WNW,285,2.5,8.1,69,0.00,SCT,,0.00,WeatherDisplay:10.37,2013-06-02 01:31:00,
2013-06-01 20:36:00,66.4,57.1,29.67,NW,314,4.3,9.2,72,0.00,SCT,,0.00,WeatherDisplay:10.37,2013-06-02 01:36:00,
2013-06-01 20:41:00,66.1,57.6,29.67,SSW,195,2.5,4.5,74,0.00,SCT,,0.00,WeatherDisplay:10.37,2013-06-02 01:41:00,
2013-06-01 20:46:00,65.6,57.5,29.67,NW,322,3.9,5.8,75,0.00,SCT,,0.00,WeatherDisplay:10.37,2013-06-02 01:46:00,
2013-06-01 20:51:00,65.7,57.6,29.67,NNW,335,3.7,6.9,75,0.00,SCT,,0.00,WeatherDisplay:10.37,2013-06-02 01:51:00,
2013-06-01 20:56:00,65.5,57.4,29.68,NNW,332,4.2,10.4,75,0.00,SCT,,0.00,WeatherDisplay:10.37,2013-06-02 01:56:00,
2013-06-01 21:01:00,65.6,57.1,29.68,NNW,339,3.4,5.8,74,0.00,-RA,,0.00,WeatherDisplay:10.37,2013-06-02 02:01:00,
2013-06-01 21:06:00,65.4,56.9,29.68,WSW,256,3.2,6.9,74,0.00,-RA,,0.00,WeatherDisplay:10.37,2013-06-02 02:06:00,
2013-06-01 21:11:00,65.4,57.3,29.69,WSW,252,4.0,6.3,75,0.00,-RA,,0.00,WeatherDisplay:10.37,2013-06-02 02:11:00,
2013-06-01 21:16:00,65.2,57.1,29.69,WSW,257,1.4,5.8,75,0.00,-RA,,0.00,WeatherDisplay:10.37,2013-06-02 02:16:00,
2013-06-01 21:21:00,65.2,57.1,29.69,NNW,343,2.1,4.6,75,0.00,-RA,,0.00,WeatherDisplay:10.37,2013-06-02 02:21:00,
2013-06-01 21:26:00,65.0,56.5,29.69,WSW,239,4.0,6.8,74,0.00,-RA,,0.00,WeatherDisplay:10.37,2013-06-02 02:26:00,
2013-06-01 21:31:00,64.9,56.4,29.69,NW,325,4.6,6.9,74,0.00,-RA,,0.00,WeatherDisplay:10.37,2013-06-02 02:31:00,
2013-06-01 21:36:00,64.9,56.4,29.69,SW,222,0.2,2.3,74,0.00,-RA,,0.00,WeatherDisplay:10.37,2013-06-02 02:36:00,
2013-06-01 21:41:00,64.6,56.5,29.69,NW,314,4.6,8.1,75,0.00,-RA,,0.00,WeatherDisplay:10.37,2013-06-02 02:41:00,
2013-06-01 21:46:00,64.8,56.7,29.70,SW,226,0.5,3.5,75,0.00,-RA,,0.00,WeatherDisplay:10.37,2013-06-02 02:46:00,
2013-06-01 21:51:00,64.6,56.9,29.70,WNW,288,3.8,5.9,76,0.00,-RA,,0.00,WeatherDisplay:10.37,2013-06-02 02:51:00,
2013-06-01 21:56:00,64.4,56.7,29.70,WNW,284,1.6,4.6,76,0.00,-RA,,0.00,WeatherDisplay:10.37,2013-06-02 02:56:00,
2013-06-01 22:01:00,64.4,57.0,29.70,West,261,2.7,6.9,77,0.00,-RA,,0.00,WeatherDisplay:10.37,2013-06-02 03:01:00,
2013-06-01 22:06:00,64.4,57.4,29.70,WNW,301,3.5,8.1,78,0.00,-RA,,0.00,WeatherDisplay:10.37,2013-06-02 03:06:00,
2013-06-01 22:11:00,64.2,57.2,29.70,NNW,338,1.9,5.8,78,0.00,-RA,,0.00,WeatherDisplay:10.37,2013-06-02 03:11:00,
2013-06-01 22:16:00,64.1,57.5,29.70,WNW,291,3.1,5.8,79,0.00,-RA,,0.00,WeatherDisplay:10.37,2013-06-02 03:16:00,
2013-06-01 22:21:00,63.9,57.6,29.70,WSW,250,2.0,4.6,80,0.00,-RA,,0.00,WeatherDisplay:10.37,2013-06-02 03:21:00,
2013-06-01 22:26:00,63.8,57.9,29.71,WSW,252,4.5,6.9,81,0.00,-RA,,0.00,WeatherDisplay:10.37,2013-06-02 03:26:00,
2013-06-01 22:31:00,63.9,58.0,29.71,SSW,201,2.2,4.6,81,0.00,-RA,,0.00,WeatherDisplay:10.37,2013-06-02 03:31:00,
2013-06-01 22:36:00,63.7,58.1,29.71,West,277,3.1,6.9,82,0.00,-RA,,0.00,WeatherDisplay:10.37,2013-06-02 03:36:00,
2013-06-01 22:41:00,63.5,58.2,29.71,NW,315,3.3,5.8,83,0.00,-RA,,0.00,WeatherDisplay:10.37,2013-06-02 03:41:00,
2013-06-01 22:46:00,63.3,58.4,29.71,WNW,297,1.6,4.6,84,0.00,-RA,,0.00,WeatherDisplay:10.37,2013-06-02 03:46:00,
2013-06-01 22:51:00,63.1,58.8,29.71,WNW,290,2.5,4.6,86,0.00,-RA,,0.00,WeatherDisplay:10.37,2013-06-02 03:51:00,
2013-06-01 22:56:00,62.9,58.6,29.71,NW,315,2.0,3.5,86,0.00,-RA,,0.00,WeatherDisplay:10.37,2013-06-02 03:56:00,
2013-06-01 23:01:00,62.7,59.1,29.72,WNW,290,1.1,2.3,88,0.00,OVC,,0.00,WeatherDisplay:10.37,2013-06-02 04:01:00,
2013-06-01 23:06:00,62.4,59.1,29.71,WSW,249,2.0,3.5,89,0.00,OVC,,0.00,WeatherDisplay:10.37,2013-06-02 04:06:00,
2013-06-01 23:11:00,62.1,59.1,29.71,WSW,244,3.2,5.8,90,0.00,OVC,,0.00,WeatherDisplay:10.37,2013-06-02 04:11:00,
2013-06-01 23:16:00,61.9,59.2,29.71,SW,235,3.1,4.6,91,0.00,OVC,,0.00,WeatherDisplay:10.37,2013-06-02 04:16:00,
2013-06-01 23:21:00,61.9,59.5,29.71,WNW,295,2.3,4.6,92,0.00,OVC,,0.00,WeatherDisplay:10.37,2013-06-02 04:21:00,
2013-06-01 23:26:00,61.7,59.4,29.72,WSW,240,3.1,4.6,92,0.00,OVC,,0.00,WeatherDisplay:10.37,2013-06-02 04:26:00,
2013-06-01 23:31:00,61.6,59.6,29.72,SSW,205,2.5,4.6,93,0.00,OVC,,0.00,WeatherDisplay:10.37,2013-06-02 04:31:00,
2013-06-01 23:36:00,61.6,59.6,29.72,WSW,249,1.9,6.9,93,0.00,OVC,,0.00,WeatherDisplay:10.37,2013-06-02 04:36:00,
2013-06-01 23:41:00,61.6,59.6,29.72,WSW,240,3.4,5.8,93,0.00,OVC,,0.00,WeatherDisplay:10.37,2013-06-02 04:41:00,
2013-06-01 23:46:00,61.7,59.7,29.72,WNW,290,4.3,9.2,93,0.00,OVC,,0.00,WeatherDisplay:10.37,2013-06-02 04:46:00,
2013-06-01 23:51:00,61.6,59.6,29.73,NW,305,8.1,11.5,93,0.00,OVC,,0.00,WeatherDisplay:10.37,2013-06-02 04:51:00,
2013-06-01 23:56:00,61.7,59.7,29.72,WNW,302,5.4,6.9,93,0.00,OVC,,0.00,WeatherDisplay:10.37,2013-06-02 04:56:00,